الصفحة الرئيسية
METAR-TAF:

METAR-TAF

مطار :

مطار لوكسمبورغ

لوكسمبورغ, لوكسمبورغ

دائرة عرض: 49-37N, خط طول: 006-13E, ارتفاع: 376 متر

مراقبة الطقس الحالي

تاريخ ووقت الإصدار 31 دقيقة قبل الساعة 21:50UTC
ريح 9 عقدة من الشمال/الشمال الشرقي
درجة الحرارة 16°درجة مئوية
الرطوبة 63%
ضغط 1020 hPa
الرؤية 10 كم أو أكثر
الغيوم لا تقل 1500 م ولا وجود لمزنة ركامية السحاب الأسود

METAR: ELLX 172150Z 02009KT CAVOK 16/09 Q1020 NOSIG

زمن: 00:21 (22:21 UTC)

توقعات

تاريخ ووقت الإصدار 5ساعات و 21 دقيقة قبل الساعة 17:00UTC
التوقعات صالحة من17 الساعة 18 UTC إلى 18 الساعة 24 UTC
ريح 6 عقدة من الشمال/الشمال الشرقي
الرؤية 10 كم أو أكثر
الغيوم لا تقل 1500 م ولا وجود لمزنة ركامية السحاب الأسود
نظرية الاحتمالات 40% :
مؤقت
من 18 الساعة 02 UTC إلى 18 الساعة 07 UTC
الرؤية: 3000 متر
غيوم مفككة على ارتفاع 1000 قدم
غشاء
مؤقت
من 18 الساعة 09 UTC إلى 18 الساعة 20 UTC
ريح 10 عقدة من الشرق/الشمال الشرقي تتزايد حتى 20 عقدة

TAF: ELLX 171700Z 1718/1824 03006KT CAVOK PROB40 TEMPO 1802/1807 3000 BR BKN010 TEMPO 1809/1820 06010G20KT

أرصاد الطقس والتوقعات من أكثر من 4000 مطار (تقارير الطقس للمطار METAR والتنبؤ بالطقس بالمطارTAF).

المحطات المتاحة هي النقط الصفراء والحمراء على الخريطة.

حرك المؤشر فوق النقطة لمعرفة اسم المحطة.

ثم انقر لمعرفة أرصاد وتوقعات الطقس.

لتغيير الخارطة: اضغط على الأزرار الخضراء مع رمز الصليب الأسود للتكبير. على الزر الأخضر مع شرطة للتصغير، أو على الأسهم الخضراء للخرائط المجاورة.


METAR-TAF: